sensor_id;sensor_type;location;lat;lon;timestamp;P1;durP1;ratioP1;P2;durP2;ratioP2
35114;SDS011;21292;52.416;13.046;2022-08-23T00:02:40;5.57;;;3.25;;
35114;SDS011;21292;52.416;13.046;2022-08-23T00:05:09;4.93;;;2.90;;
35114;SDS011;21292;52.416;13.046;2022-08-23T00:07:39;4.25;;;2.72;;
35114;SDS011;21292;52.416;13.046;2022-08-23T00:10:09;4.88;;;3.20;;
35114;SDS011;21292;52.416;13.046;2022-08-23T00:12:39;4.88;;;2.63;;
35114;SDS011;21292;52.416;13.046;2022-08-23T00:15:08;6.50;;;3.03;;
35114;SDS011;21292;52.416;13.046;2022-08-23T00:17:37;5.65;;;2.70;;
35114;SDS011;21292;52.416;13.046;2022-08-23T00:20:10;2.95;;;2.75;;
35114;SDS011;21292;52.416;13.046;2022-08-23T00:22:39;4.72;;;2.88;;
35114;SDS011;21292;52.416;13.046;2022-08-23T00:25:09;6.10;;;2.95;;
35114;SDS011;21292;52.416;13.046;2022-08-23T00:27:38;4.10;;;3.47;;
35114;SDS011;21292;52.416;13.046;2022-08-23T00:30:06;6.63;;;3.35;;
35114;SDS011;21292;52.416;13.046;2022-08-23T00:32:36;7.30;;;3.15;;
35114;SDS011;21292;52.416;13.046;2022-08-23T00:35:06;5.68;;;3.17;;
35114;SDS011;21292;52.416;13.046;2022-08-23T00:37:37;8.57;;;3.20;;
35114;SDS011;21292;52.416;13.046;2022-08-23T00:40:06;6.85;;;3.67;;
35114;SDS011;21292;52.416;13.046;2022-08-23T00:42:37;7.95;;;3.42;;
35114;SDS011;21292;52.416;13.046;2022-08-23T00:45:27;8.77;;;3.83;;
35114;SDS011;21292;52.416;13.046;2022-08-23T00:48:15;16.55;;;9.40;;
35114;SDS011;21292;52.416;13.046;2022-08-23T00:50:46;8.13;;;4.47;;
35114;SDS011;21292;52.416;13.046;2022-08-23T00:53:19;7.72;;;3.40;;
35114;SDS011;21292;52.416;13.046;2022-08-23T00:55:51;7.57;;;4.10;;
35114;SDS011;21292;52.416;13.046;2022-08-23T00:58:21;7.03;;;3.30;;
35114;SDS011;21292;52.416;13.046;2022-08-23T01:00:50;7.72;;;3.80;;
35114;SDS011;21292;52.416;13.046;2022-08-23T01:03:21;7.47;;;3.92;;
35114;SDS011;21292;52.416;13.046;2022-08-23T01:05:52;5.80;;;3.85;;
35114;SDS011;21292;52.416;13.046;2022-08-23T01:08:25;15.23;;;4.57;;
35114;SDS011;21292;52.416;13.046;2022-08-23T01:10:55;8.18;;;3.95;;
35114;SDS011;21292;52.416;13.046;2022-08-23T01:13:27;7.32;;;3.72;;
35114;SDS011;21292;52.416;13.046;2022-08-23T01:16:00;6.13;;;3.67;;
35114;SDS011;21292;52.416;13.046;2022-08-23T01:18:31;6.30;;;3.75;;
35114;SDS011;21292;52.416;13.046;2022-08-23T01:21:06;8.23;;;3.70;;
35114;SDS011;21292;52.416;13.046;2022-08-23T01:23:41;5.40;;;3.70;;
35114;SDS011;21292;52.416;13.046;2022-08-23T01:26:10;8.23;;;4.07;;
35114;SDS011;21292;52.416;13.046;2022-08-23T01:28:47;9.75;;;4.28;;
35114;SDS011;21292;52.416;13.046;2022-08-23T01:31:15;8.23;;;4.43;;
35114;SDS011;21292;52.416;13.046;2022-08-23T01:33:45;5.85;;;4.07;;
35114;SDS011;21292;52.416;13.046;2022-08-23T01:38:46;10.98;;;5.75;;
35114;SDS011;21292;52.416;13.046;2022-08-23T01:41:15;8.77;;;4.55;;
35114;SDS011;21292;52.416;13.046;2022-08-23T01:43:43;10.52;;;4.85;;
35114;SDS011;21292;52.416;13.046;2022-08-23T01:46:13;7.20;;;4.50;;
35114;SDS011;21292;52.416;13.046;2022-08-23T01:48:44;9.73;;;4.78;;
35114;SDS011;21292;52.416;13.046;2022-08-23T01:51:13;6.35;;;4.10;;
35114;SDS011;21292;52.416;13.046;2022-08-23T01:53:42;9.98;;;5.18;;
35114;SDS011;21292;52.416;13.046;2022-08-23T01:56:13;7.70;;;4.38;;
35114;SDS011;21292;52.416;13.046;2022-08-23T01:59:04;10.18;;;5.50;;
35114;SDS011;21292;52.416;13.046;2022-08-23T02:01:32;8.05;;;4.65;;
35114;SDS011;21292;52.416;13.046;2022-08-23T02:04:00;11.63;;;5.20;;
35114;SDS011;21292;52.416;13.046;2022-08-23T02:06:31;12.80;;;5.20;;
35114;SDS011;21292;52.416;13.046;2022-08-23T02:08:59;8.40;;;5.60;;
35114;SDS011;21292;52.416;13.046;2022-08-23T02:11:31;11.10;;;5.05;;
35114;SDS011;21292;52.416;13.046;2022-08-23T02:14:02;8.52;;;5.15;;
35114;SDS011;21292;52.416;13.046;2022-08-23T02:16:33;8.57;;;5.05;;
35114;SDS011;21292;52.416;13.046;2022-08-23T02:19:04;7.72;;;4.85;;
35114;SDS011;21292;52.416;13.046;2022-08-23T02:21:35;8.43;;;4.72;;
35114;SDS011;21292;52.416;13.046;2022-08-23T02:24:04;8.05;;;4.45;;
35114;SDS011;21292;52.416;13.046;2022-08-23T02:26:35;8.13;;;4.88;;
35114;SDS011;21292;52.416;13.046;2022-08-23T02:29:04;10.13;;;6.00;;
35114;SDS011;21292;52.416;13.046;2022-08-23T02:31:33;9.55;;;5.35;;
35114;SDS011;21292;52.416;13.046;2022-08-23T02:34:03;15.73;;;5.38;;
35114;SDS011;21292;52.416;13.046;2022-08-23T02:36:49;8.85;;;5.55;;
35114;SDS011;21292;52.416;13.046;2022-08-23T02:39:17;7.47;;;5.07;;
35114;SDS011;21292;52.416;13.046;2022-08-23T02:41:46;11.90;;;5.88;;
35114;SDS011;21292;52.416;13.046;2022-08-23T02:44:15;7.22;;;5.07;;
35114;SDS011;21292;52.416;13.046;2022-08-23T02:46:44;11.35;;;5.63;;
35114;SDS011;21292;52.416;13.046;2022-08-23T02:49:13;14.23;;;5.28;;
35114;SDS011;21292;52.416;13.046;2022-08-23T02:51:41;7.85;;;5.13;;
35114;SDS011;21292;52.416;13.046;2022-08-23T02:54:10;10.23;;;6.22;;
35114;SDS011;21292;52.416;13.046;2022-08-23T02:56:38;7.70;;;5.82;;
35114;SDS011;21292;52.416;13.046;2022-08-23T02:59:07;10.75;;;5.72;;
35114;SDS011;21292;52.416;13.046;2022-08-23T03:01:36;13.18;;;6.13;;
35114;SDS011;21292;52.416;13.046;2022-08-23T03:04:05;14.57;;;6.35;;
35114;SDS011;21292;52.416;13.046;2022-08-23T03:06:35;10.63;;;5.72;;
35114;SDS011;21292;52.416;13.046;2022-08-23T03:09:03;10.68;;;6.20;;
35114;SDS011;21292;52.416;13.046;2022-08-23T03:11:33;13.13;;;5.82;;
35114;SDS011;21292;52.416;13.046;2022-08-23T03:14:01;14.00;;;6.45;;
35114;SDS011;21292;52.416;13.046;2022-08-23T03:16:31;10.40;;;6.50;;
35114;SDS011;21292;52.416;13.046;2022-08-23T03:18:59;11.45;;;6.05;;
35114;SDS011;21292;52.416;13.046;2022-08-23T03:21:27;14.10;;;6.43;;
35114;SDS011;21292;52.416;13.046;2022-08-23T03:23:58;13.65;;;6.10;;
35114;SDS011;21292;52.416;13.046;2022-08-23T03:26:26;7.10;;;5.15;;
35114;SDS011;21292;52.416;13.046;2022-08-23T03:28:54;17.13;;;6.03;;
35114;SDS011;21292;52.416;13.046;2022-08-23T03:31:22;10.98;;;5.63;;
35114;SDS011;21292;52.416;13.046;2022-08-23T03:33:56;9.75;;;5.35;;
35114;SDS011;21292;52.416;13.046;2022-08-23T03:36:24;9.88;;;5.60;;
35114;SDS011;21292;52.416;13.046;2022-08-23T03:38:54;10.80;;;5.40;;
35114;SDS011;21292;52.416;13.046;2022-08-23T03:41:22;15.95;;;6.47;;
35114;SDS011;21292;52.416;13.046;2022-08-23T03:43:50;9.63;;;5.82;;
35114;SDS011;21292;52.416;13.046;2022-08-23T03:46:19;10.15;;;5.13;;
35114;SDS011;21292;52.416;13.046;2022-08-23T03:48:49;12.43;;;5.40;;
35114;SDS011;21292;52.416;13.046;2022-08-23T03:51:19;10.23;;;5.95;;
35114;SDS011;21292;52.416;13.046;2022-08-23T03:53:47;12.50;;;5.90;;
35114;SDS011;21292;52.416;13.046;2022-08-23T03:56:26;10.20;;;5.60;;
35114;SDS011;21292;52.416;13.046;2022-08-23T03:58:57;10.65;;;5.43;;
35114;SDS011;21292;52.416;13.046;2022-08-23T04:01:26;9.68;;;4.90;;
35114;SDS011;21292;52.416;13.046;2022-08-23T04:03:54;8.07;;;4.97;;
35114;SDS011;21292;52.416;13.046;2022-08-23T04:06:27;9.40;;;4.80;;
35114;SDS011;21292;52.416;13.046;2022-08-23T04:08:55;8.75;;;5.10;;
35114;SDS011;21292;52.416;13.046;2022-08-23T04:11:23;8.98;;;4.65;;
35114;SDS011;21292;52.416;13.046;2022-08-23T04:13:52;9.35;;;4.97;;
35114;SDS011;21292;52.416;13.046;2022-08-23T04:16:20;11.93;;;5.88;;
35114;SDS011;21292;52.416;13.046;2022-08-23T04:18:48;12.35;;;5.72;;
35114;SDS011;21292;52.416;13.046;2022-08-23T04:21:18;8.40;;;5.60;;
35114;SDS011;21292;52.416;13.046;2022-08-23T04:23:50;9.98;;;4.60;;
35114;SDS011;21292;52.416;13.046;2022-08-23T04:26:18;7.70;;;5.43;;
35114;SDS011;21292;52.416;13.046;2022-08-23T04:28:47;7.68;;;5.00;;
35114;SDS011;21292;52.416;13.046;2022-08-23T04:31:15;7.45;;;5.32;;
35114;SDS011;21292;52.416;13.046;2022-08-23T04:33:44;8.25;;;4.20;;
35114;SDS011;21292;52.416;13.046;2022-08-23T04:36:18;9.20;;;5.13;;
35114;SDS011;21292;52.416;13.046;2022-08-23T04:38:50;16.35;;;5.82;;
35114;SDS011;21292;52.416;13.046;2022-08-23T04:41:18;8.90;;;5.68;;
35114;SDS011;21292;52.416;13.046;2022-08-23T04:44:03;7.82;;;5.07;;
35114;SDS011;21292;52.416;13.046;2022-08-23T04:46:32;9.05;;;5.60;;
35114;SDS011;21292;52.416;13.046;2022-08-23T04:49:01;10.50;;;5.28;;
35114;SDS011;21292;52.416;13.046;2022-08-23T04:51:30;12.45;;;5.82;;
35114;SDS011;21292;52.416;13.046;2022-08-23T04:53:59;11.13;;;5.18;;
35114;SDS011;21292;52.416;13.046;2022-08-23T04:56:27;8.82;;;5.57;;
35114;SDS011;21292;52.416;13.046;2022-08-23T04:58:56;7.90;;;5.47;;
35114;SDS011;21292;52.416;13.046;2022-08-23T05:01:24;9.50;;;5.57;;
35114;SDS011;21292;52.416;13.046;2022-08-23T05:03:52;9.68;;;5.57;;
35114;SDS011;21292;52.416;13.046;2022-08-23T05:06:21;9.55;;;5.40;;
35114;SDS011;21292;52.416;13.046;2022-08-23T05:08:49;10.93;;;5.57;;
35114;SDS011;21292;52.416;13.046;2022-08-23T05:11:18;14.05;;;6.00;;
35114;SDS011;21292;52.416;13.046;2022-08-23T05:13:47;10.82;;;5.82;;
35114;SDS011;21292;52.416;13.046;2022-08-23T05:16:15;9.32;;;5.07;;
35114;SDS011;21292;52.416;13.046;2022-08-23T05:18:43;13.73;;;5.05;;
35114;SDS011;21292;52.416;13.046;2022-08-23T05:21:13;7.97;;;5.03;;
35114;SDS011;21292;52.416;13.046;2022-08-23T05:23:42;12.27;;;5.80;;
35114;SDS011;21292;52.416;13.046;2022-08-23T05:26:16;7.90;;;5.30;;
35114;SDS011;21292;52.416;13.046;2022-08-23T05:28:47;9.27;;;5.40;;
35114;SDS011;21292;52.416;13.046;2022-08-23T05:31:16;9.73;;;5.40;;
35114;SDS011;21292;52.416;13.046;2022-08-23T05:33:45;8.57;;;5.22;;
35114;SDS011;21292;52.416;13.046;2022-08-23T05:36:14;7.50;;;4.32;;
35114;SDS011;21292;52.416;13.046;2022-08-23T05:38:43;12.95;;;5.15;;
35114;SDS011;21292;52.416;13.046;2022-08-23T05:41:12;7.07;;;4.80;;
35114;SDS011;21292;52.416;13.046;2022-08-23T05:43:42;8.90;;;4.60;;
35114;SDS011;21292;52.416;13.046;2022-08-23T05:46:11;10.00;;;4.32;;
35114;SDS011;21292;52.416;13.046;2022-08-23T05:48:40;5.95;;;4.70;;
35114;SDS011;21292;52.416;13.046;2022-08-23T05:51:13;8.65;;;4.47;;
35114;SDS011;21292;52.416;13.046;2022-08-23T05:53:42;9.77;;;4.13;;
35114;SDS011;21292;52.416;13.046;2022-08-23T05:56:12;7.13;;;5.10;;
35114;SDS011;21292;52.416;13.046;2022-08-23T05:58:43;10.75;;;4.70;;
35114;SDS011;21292;52.416;13.046;2022-08-23T06:01:12;9.70;;;5.18;;
35114;SDS011;21292;52.416;13.046;2022-08-23T06:03:41;16.95;;;4.35;;
35114;SDS011;21292;52.416;13.046;2022-08-23T06:06:10;8.85;;;5.45;;
35114;SDS011;21292;52.416;13.046;2022-08-23T06:08:40;8.75;;;4.90;;
35114;SDS011;21292;52.416;13.046;2022-08-23T06:11:13;8.48;;;4.55;;
35114;SDS011;21292;52.416;13.046;2022-08-23T06:13:45;10.50;;;4.82;;
35114;SDS011;21292;52.416;13.046;2022-08-23T06:16:16;9.82;;;4.93;;
35114;SDS011;21292;52.416;13.046;2022-08-23T06:18:45;10.15;;;4.70;;
35114;SDS011;21292;52.416;13.046;2022-08-23T06:21:14;9.98;;;4.80;;
35114;SDS011;21292;52.416;13.046;2022-08-23T06:23:42;9.02;;;4.50;;
35114;SDS011;21292;52.416;13.046;2022-08-23T06:26:10;9.52;;;4.47;;
35114;SDS011;21292;52.416;13.046;2022-08-23T06:28:40;13.63;;;4.90;;
35114;SDS011;21292;52.416;13.046;2022-08-23T06:31:18;9.25;;;4.97;;
35114;SDS011;21292;52.416;13.046;2022-08-23T06:34:02;9.57;;;4.50;;
35114;SDS011;21292;52.416;13.046;2022-08-23T06:36:30;9.18;;;5.00;;
35114;SDS011;21292;52.416;13.046;2022-08-23T06:38:58;7.75;;;4.45;;
35114;SDS011;21292;52.416;13.046;2022-08-23T06:41:26;10.38;;;4.95;;
35114;SDS011;21292;52.416;13.046;2022-08-23T06:43:55;8.75;;;4.78;;
35114;SDS011;21292;52.416;13.046;2022-08-23T06:46:25;6.85;;;4.07;;
35114;SDS011;21292;52.416;13.046;2022-08-23T06:48:55;12.50;;;4.68;;
35114;SDS011;21292;52.416;13.046;2022-08-23T06:51:26;9.27;;;5.20;;
35114;SDS011;21292;52.416;13.046;2022-08-23T06:53:58;7.40;;;4.78;;
35114;SDS011;21292;52.416;13.046;2022-08-23T06:56:29;8.90;;;4.03;;
35114;SDS011;21292;52.416;13.046;2022-08-23T06:58:57;9.80;;;4.28;;
35114;SDS011;21292;52.416;13.046;2022-08-23T07:01:27;10.40;;;4.68;;
35114;SDS011;21292;52.416;13.046;2022-08-23T07:04:15;11.98;;;4.70;;
35114;SDS011;21292;52.416;13.046;2022-08-23T07:06:45;5.35;;;4.50;;
35114;SDS011;21292;52.416;13.046;2022-08-23T07:09:13;10.13;;;5.10;;
35114;SDS011;21292;52.416;13.046;2022-08-23T07:11:42;8.95;;;4.22;;
35114;SDS011;21292;52.416;13.046;2022-08-23T07:14:11;8.57;;;4.20;;
35114;SDS011;21292;52.416;13.046;2022-08-23T07:16:42;12.63;;;5.00;;
35114;SDS011;21292;52.416;13.046;2022-08-23T07:19:11;7.55;;;5.00;;
35114;SDS011;21292;52.416;13.046;2022-08-23T07:21:40;8.60;;;4.55;;
35114;SDS011;21292;52.416;13.046;2022-08-23T07:24:08;9.52;;;4.85;;
35114;SDS011;21292;52.416;13.046;2022-08-23T07:26:36;6.50;;;3.92;;
35114;SDS011;21292;52.416;13.046;2022-08-23T07:29:05;10.43;;;4.35;;
35114;SDS011;21292;52.416;13.046;2022-08-23T07:31:34;8.73;;;4.28;;
35114;SDS011;21292;52.416;13.046;2022-08-23T07:34:07;11.55;;;3.90;;
35114;SDS011;21292;52.416;13.046;2022-08-23T07:36:36;9.52;;;3.53;;
35114;SDS011;21292;52.416;13.046;2022-08-23T07:39:04;11.57;;;4.43;;
35114;SDS011;21292;52.416;13.046;2022-08-23T07:41:33;12.02;;;4.15;;
35114;SDS011;21292;52.416;13.046;2022-08-23T07:44:02;8.10;;;4.10;;
35114;SDS011;21292;52.416;13.046;2022-08-23T07:46:32;8.32;;;3.83;;
35114;SDS011;21292;52.416;13.046;2022-08-23T07:49:02;7.32;;;4.13;;
35114;SDS011;21292;52.416;13.046;2022-08-23T07:51:32;9.45;;;4.63;;
35114;SDS011;21292;52.416;13.046;2022-08-23T07:54:02;8.88;;;4.53;;
35114;SDS011;21292;52.416;13.046;2022-08-23T07:56:31;8.25;;;3.92;;
35114;SDS011;21292;52.416;13.046;2022-08-23T07:58:59;9.00;;;4.35;;
35114;SDS011;21292;52.416;13.046;2022-08-23T08:01:28;7.70;;;4.00;;
35114;SDS011;21292;52.416;13.046;2022-08-23T08:03:57;7.60;;;3.75;;
35114;SDS011;21292;52.416;13.046;2022-08-23T08:06:27;10.40;;;3.97;;
35114;SDS011;21292;52.416;13.046;2022-08-23T08:08:58;8.07;;;3.45;;
35114;SDS011;21292;52.416;13.046;2022-08-23T08:11:26;5.97;;;3.75;;
35114;SDS011;21292;52.416;13.046;2022-08-23T08:14:01;9.48;;;3.42;;
35114;SDS011;21292;52.416;13.046;2022-08-23T08:16:31;8.63;;;3.53;;
35114;SDS011;21292;52.416;13.046;2022-08-23T08:19:00;6.22;;;3.13;;
35114;SDS011;21292;52.416;13.046;2022-08-23T08:21:34;6.63;;;2.63;;
35114;SDS011;21292;52.416;13.046;2022-08-23T08:24:09;4.65;;;3.05;;
35114;SDS011;21292;52.416;13.046;2022-08-23T08:26:39;6.85;;;3.13;;
35114;SDS011;21292;52.416;13.046;2022-08-23T08:29:07;8.75;;;2.67;;
35114;SDS011;21292;52.416;13.046;2022-08-23T08:31:38;6.65;;;2.28;;
35114;SDS011;21292;52.416;13.046;2022-08-23T08:34:07;7.50;;;2.38;;
35114;SDS011;21292;52.416;13.046;2022-08-23T08:36:36;4.53;;;2.30;;
35114;SDS011;21292;52.416;13.046;2022-08-23T08:39:06;6.38;;;3.05;;
35114;SDS011;21292;52.416;13.046;2022-08-23T08:41:47;6.73;;;3.00;;
35114;SDS011;21292;52.416;13.046;2022-08-23T08:44:33;6.90;;;2.53;;
35114;SDS011;21292;52.416;13.046;2022-08-23T08:47:06;6.68;;;2.90;;
35114;SDS011;21292;52.416;13.046;2022-08-23T08:49:37;5.18;;;2.22;;
35114;SDS011;21292;52.416;13.046;2022-08-23T08:52:14;8.32;;;2.35;;
35114;SDS011;21292;52.416;13.046;2022-08-23T08:54:46;4.57;;;2.78;;
35114;SDS011;21292;52.416;13.046;2022-08-23T08:57:19;7.28;;;2.50;;
35114;SDS011;21292;52.416;13.046;2022-08-23T08:59:55;4.72;;;2.20;;
35114;SDS011;21292;52.416;13.046;2022-08-23T09:02:27;4.55;;;2.58;;
35114;SDS011;21292;52.416;13.046;2022-08-23T09:04:59;5.43;;;2.20;;
35114;SDS011;21292;52.416;13.046;2022-08-23T09:07:30;5.32;;;2.22;;
35114;SDS011;21292;52.416;13.046;2022-08-23T09:10:08;6.68;;;2.40;;
35114;SDS011;21292;52.416;13.046;2022-08-23T09:12:49;6.53;;;2.30;;
35114;SDS011;21292;52.416;13.046;2022-08-23T09:15:20;8.43;;;2.80;;
35114;SDS011;21292;52.416;13.046;2022-08-23T09:17:53;6.20;;;2.17;;
35114;SDS011;21292;52.416;13.046;2022-08-23T09:20:23;4.82;;;2.47;;
35114;SDS011;21292;52.416;13.046;2022-08-23T09:22:59;7.95;;;2.30;;
35114;SDS011;21292;52.416;13.046;2022-08-23T09:25:34;3.40;;;2.20;;
35114;SDS011;21292;52.416;13.046;2022-08-23T09:28:03;7.30;;;3.08;;
35114;SDS011;21292;52.416;13.046;2022-08-23T09:30:45;3.67;;;2.25;;
35114;SDS011;21292;52.416;13.046;2022-08-23T09:33:16;10.00;;;2.83;;
35114;SDS011;21292;52.416;13.046;2022-08-23T09:35:56;7.47;;;2.92;;
35114;SDS011;21292;52.416;13.046;2022-08-23T09:38:30;4.55;;;2.03;;
35114;SDS011;21292;52.416;13.046;2022-08-23T09:41:01;6.55;;;2.78;;
35114;SDS011;21292;52.416;13.046;2022-08-23T09:43:45;11.18;;;2.85;;
35114;SDS011;21292;52.416;13.046;2022-08-23T09:46:23;5.55;;;2.03;;
35114;SDS011;21292;52.416;13.046;2022-08-23T09:48:52;3.97;;;2.40;;
35114;SDS011;21292;52.416;13.046;2022-08-23T09:51:24;4.77;;;2.10;;
35114;SDS011;21292;52.416;13.046;2022-08-23T09:54:03;4.90;;;2.60;;
35114;SDS011;21292;52.416;13.046;2022-08-23T09:56:35;6.88;;;2.38;;
35114;SDS011;21292;52.416;13.046;2022-08-23T09:59:22;5.28;;;2.25;;
35114;SDS011;21292;52.416;13.046;2022-08-23T10:01:59;4.25;;;2.50;;
35114;SDS011;21292;52.416;13.046;2022-08-23T10:04:30;6.95;;;2.10;;
35114;SDS011;21292;52.416;13.046;2022-08-23T10:07:20;4.82;;;2.20;;
35114;SDS011;21292;52.416;13.046;2022-08-23T10:09:53;7.90;;;2.58;;
35114;SDS011;21292;52.416;13.046;2022-08-23T10:12:23;6.72;;;2.47;;
35114;SDS011;21292;52.416;13.046;2022-08-23T10:14:51;5.47;;;2.60;;
35114;SDS011;21292;52.416;13.046;2022-08-23T10:17:23;6.68;;;2.38;;
35114;SDS011;21292;52.416;13.046;2022-08-23T10:19:58;5.85;;;2.20;;
35114;SDS011;21292;52.416;13.046;2022-08-23T10:22:34;6.00;;;2.33;;
35114;SDS011;21292;52.416;13.046;2022-08-23T10:25:08;10.27;;;2.83;;
35114;SDS011;21292;52.416;13.046;2022-08-23T10:27:42;4.38;;;2.60;;
35114;SDS011;21292;52.416;13.046;2022-08-23T10:30:32;7.43;;;2.47;;
35114;SDS011;21292;52.416;13.046;2022-08-23T10:33:12;6.07;;;2.40;;
35114;SDS011;21292;52.416;13.046;2022-08-23T10:35:45;6.72;;;2.40;;
35114;SDS011;21292;52.416;13.046;2022-08-23T10:41:13;5.13;;;2.20;;
35114;SDS011;21292;52.416;13.046;2022-08-23T10:43:52;5.43;;;2.17;;
35114;SDS011;21292;52.416;13.046;2022-08-23T10:46:23;7.85;;;2.42;;
35114;SDS011;21292;52.416;13.046;2022-08-23T10:48:55;5.97;;;2.50;;
35114;SDS011;21292;52.416;13.046;2022-08-23T10:51:26;4.25;;;1.98;;
35114;SDS011;21292;52.416;13.046;2022-08-23T10:53:59;8.60;;;2.63;;
35114;SDS011;21292;52.416;13.046;2022-08-23T10:56:29;4.78;;;1.95;;
35114;SDS011;21292;52.416;13.046;2022-08-23T10:59:00;6.18;;;2.03;;
35114;SDS011;21292;52.416;13.046;2022-08-23T11:01:39;3.70;;;1.98;;
35114;SDS011;21292;52.416;13.046;2022-08-23T11:04:15;7.85;;;2.35;;
35114;SDS011;21292;52.416;13.046;2022-08-23T11:06:48;3.67;;;2.15;;
35114;SDS011;21292;52.416;13.046;2022-08-23T11:09:27;3.22;;;2.00;;
35114;SDS011;21292;52.416;13.046;2022-08-23T11:15:10;5.95;;;1.95;;
35114;SDS011;21292;52.416;13.046;2022-08-23T11:17:55;2.95;;;2.08;;
35114;SDS011;21292;52.416;13.046;2022-08-23T11:23:38;4.47;;;1.83;;
35114;SDS011;21292;52.416;13.046;2022-08-23T11:26:09;4.57;;;2.53;;
35114;SDS011;21292;52.416;13.046;2022-08-23T11:28:40;4.10;;;2.22;;
35114;SDS011;21292;52.416;13.046;2022-08-23T11:31:21;3.92;;;2.13;;
35114;SDS011;21292;52.416;13.046;2022-08-23T11:33:52;8.80;;;2.37;;
35114;SDS011;21292;52.416;13.046;2022-08-23T11:36:26;5.50;;;1.90;;
35114;SDS011;21292;52.416;13.046;2022-08-23T11:39:08;3.90;;;1.63;;
35114;SDS011;21292;52.416;13.046;2022-08-23T11:44:32;3.42;;;1.83;;
35114;SDS011;21292;52.416;13.046;2022-08-23T11:47:06;4.93;;;1.70;;
35114;SDS011;21292;52.416;13.046;2022-08-23T11:49:46;7.57;;;1.27;;
35114;SDS011;21292;52.416;13.046;2022-08-23T11:52:49;2.28;;;1.30;;
35114;SDS011;21292;52.416;13.046;2022-08-23T11:55:38;4.70;;;1.40;;
35114;SDS011;21292;52.416;13.046;2022-08-23T11:58:20;5.40;;;1.65;;
35114;SDS011;21292;52.416;13.046;2022-08-23T12:00:51;4.72;;;1.85;;
35114;SDS011;21292;52.416;13.046;2022-08-23T12:03:24;5.05;;;1.30;;
35114;SDS011;21292;52.416;13.046;2022-08-23T12:06:04;5.13;;;2.10;;
35114;SDS011;21292;52.416;13.046;2022-08-23T12:08:46;6.15;;;1.40;;
35114;SDS011;21292;52.416;13.046;2022-08-23T12:11:16;3.77;;;1.67;;
35114;SDS011;21292;52.416;13.046;2022-08-23T12:13:52;3.50;;;1.80;;
35114;SDS011;21292;52.416;13.046;2022-08-23T12:16:32;5.95;;;1.80;;
35114;SDS011;21292;52.416;13.046;2022-08-23T12:19:06;5.60;;;2.10;;
35114;SDS011;21292;52.416;13.046;2022-08-23T12:21:44;5.32;;;1.90;;
35114;SDS011;21292;52.416;13.046;2022-08-23T12:24:15;3.15;;;1.52;;
35114;SDS011;21292;52.416;13.046;2022-08-23T12:29:18;3.72;;;1.70;;
35114;SDS011;21292;52.416;13.046;2022-08-23T12:31:51;6.25;;;1.77;;
35114;SDS011;21292;52.416;13.046;2022-08-23T12:34:26;6.93;;;1.58;;
35114;SDS011;21292;52.416;13.046;2022-08-23T12:37:01;4.22;;;1.90;;
35114;SDS011;21292;52.416;13.046;2022-08-23T12:39:37;1.92;;;1.73;;
35114;SDS011;21292;52.416;13.046;2022-08-23T12:42:08;3.75;;;1.73;;
35114;SDS011;21292;52.416;13.046;2022-08-23T12:44:41;2.78;;;1.45;;
35114;SDS011;21292;52.416;13.046;2022-08-23T12:47:11;3.97;;;1.30;;
35114;SDS011;21292;52.416;13.046;2022-08-23T12:49:52;4.87;;;1.90;;
35114;SDS011;21292;52.416;13.046;2022-08-23T12:52:22;4.80;;;2.03;;
35114;SDS011;21292;52.416;13.046;2022-08-23T12:54:51;3.55;;;1.40;;
35114;SDS011;21292;52.416;13.046;2022-08-23T12:57:30;5.97;;;1.98;;
35114;SDS011;21292;52.416;13.046;2022-08-23T13:00:04;4.13;;;2.60;;
35114;SDS011;21292;52.416;13.046;2022-08-23T13:02:44;3.88;;;1.83;;
35114;SDS011;21292;52.416;13.046;2022-08-23T13:05:18;5.18;;;1.90;;
35114;SDS011;21292;52.416;13.046;2022-08-23T13:07:53;3.97;;;2.13;;
35114;SDS011;21292;52.416;13.046;2022-08-23T13:10:21;5.13;;;1.60;;
35114;SDS011;21292;52.416;13.046;2022-08-23T13:12:50;11.68;;;2.60;;
35114;SDS011;21292;52.416;13.046;2022-08-23T13:15:39;4.07;;;1.92;;
35114;SDS011;21292;52.416;13.046;2022-08-23T13:18:09;4.50;;;2.10;;
35114;SDS011;21292;52.416;13.046;2022-08-23T13:20:38;8.18;;;2.58;;
35114;SDS011;21292;52.416;13.046;2022-08-23T13:23:07;3.08;;;1.73;;
35114;SDS011;21292;52.416;13.046;2022-08-23T13:25:36;6.43;;;2.00;;
35114;SDS011;21292;52.416;13.046;2022-08-23T13:28:06;4.97;;;2.10;;
35114;SDS011;21292;52.416;13.046;2022-08-23T13:30:56;4.60;;;2.00;;
35114;SDS011;21292;52.416;13.046;2022-08-23T13:33:25;7.50;;;1.95;;
35114;SDS011;21292;52.416;13.046;2022-08-23T13:36:06;4.07;;;1.60;;
35114;SDS011;21292;52.416;13.046;2022-08-23T13:38:39;3.35;;;1.90;;
35114;SDS011;21292;52.416;13.046;2022-08-23T13:41:08;7.45;;;2.10;;
35114;SDS011;21292;52.416;13.046;2022-08-23T13:43:45;3.65;;;1.98;;
35114;SDS011;21292;52.416;13.046;2022-08-23T13:46:17;1.98;;;1.60;;
35114;SDS011;21292;52.416;13.046;2022-08-23T13:48:50;5.93;;;1.90;;
35114;SDS011;21292;52.416;13.046;2022-08-23T13:51:27;2.95;;;1.95;;
35114;SDS011;21292;52.416;13.046;2022-08-23T13:53:57;52.08;;;30.05;;
35114;SDS011;21292;52.416;13.046;2022-08-23T13:56:27;23.45;;;17.02;;
35114;SDS011;21292;52.416;13.046;2022-08-23T13:59:00;8.18;;;4.45;;
35114;SDS011;21292;52.416;13.046;2022-08-23T14:01:30;6.05;;;3.05;;
35114;SDS011;21292;52.416;13.046;2022-08-23T14:03:58;10.18;;;2.00;;
35114;SDS011;21292;52.416;13.046;2022-08-23T14:06:27;5.07;;;1.70;;
35114;SDS011;21292;52.416;13.046;2022-08-23T14:08:56;2.38;;;1.63;;
35114;SDS011;21292;52.416;13.046;2022-08-23T14:11:24;2.95;;;1.77;;
35114;SDS011;21292;52.416;13.046;2022-08-23T14:13:52;4.47;;;1.67;;
35114;SDS011;21292;52.416;13.046;2022-08-23T14:16:22;4.55;;;1.83;;
35114;SDS011;21292;52.416;13.046;2022-08-23T14:19:00;3.28;;;1.52;;
35114;SDS011;21292;52.416;13.046;2022-08-23T14:21:50;5.22;;;1.60;;
35114;SDS011;21292;52.416;13.046;2022-08-23T14:24:19;4.93;;;1.63;;
35114;SDS011;21292;52.416;13.046;2022-08-23T14:26:47;3.22;;;1.80;;
35114;SDS011;21292;52.416;13.046;2022-08-23T14:29:18;2.85;;;1.60;;
35114;SDS011;21292;52.416;13.046;2022-08-23T14:31:48;4.65;;;1.77;;
35114;SDS011;21292;52.416;13.046;2022-08-23T14:34:17;3.08;;;1.65;;
35114;SDS011;21292;52.416;13.046;2022-08-23T14:36:45;3.95;;;1.75;;
35114;SDS011;21292;52.416;13.046;2022-08-23T14:39:34;4.20;;;1.65;;
35114;SDS011;21292;52.416;13.046;2022-08-23T14:42:02;4.03;;;2.33;;
35114;SDS011;21292;52.416;13.046;2022-08-23T14:44:31;6.03;;;1.58;;
35114;SDS011;21292;52.416;13.046;2022-08-23T14:47:02;2.65;;;1.60;;
35114;SDS011;21292;52.416;13.046;2022-08-23T14:49:31;5.05;;;1.88;;
35114;SDS011;21292;52.416;13.046;2022-08-23T14:51:59;3.00;;;1.48;;
35114;SDS011;21292;52.416;13.046;2022-08-23T14:54:27;3.08;;;1.77;;
35114;SDS011;21292;52.416;13.046;2022-08-23T14:56:56;4.95;;;1.40;;
35114;SDS011;21292;52.416;13.046;2022-08-23T14:59:24;3.28;;;2.03;;
35114;SDS011;21292;52.416;13.046;2022-08-23T15:01:52;5.10;;;1.92;;
35114;SDS011;21292;52.416;13.046;2022-08-23T15:04:21;4.90;;;1.73;;
35114;SDS011;21292;52.416;13.046;2022-08-23T15:06:50;4.75;;;1.67;;
35114;SDS011;21292;52.416;13.046;2022-08-23T15:09:38;4.05;;;1.73;;
35114;SDS011;21292;52.416;13.046;2022-08-23T15:12:08;4.85;;;1.85;;
35114;SDS011;21292;52.416;13.046;2022-08-23T15:14:56;2.75;;;1.50;;
35114;SDS011;21292;52.416;13.046;2022-08-23T15:17:24;2.78;;;1.50;;